Time;durP1;ratioP1;P1;durP2;ratioP2;P2;SDS_P1;SDS_P2;PMS_P1;PMS_P2;Temp;Humidity;BMP_temperature;BMP_pressure;BME280_temperature;BME280_humidity;BME280_pressure;Samples;Min_cycle;Max_cycle;Signal;HPM_P1;HPM_P2
2023/06/26 00:01:10;;;;;;;26.27;25.07;;;28.00;69.00;;;;;;4973637;28;20882;-63
2023/06/26 00:03:37;;;;;;;26.23;25.13;;;28.00;69.40;;;;;;4973671;28;20572;-63
2023/06/26 00:06:04;;;;;;;25.87;24.67;;;27.90;69.40;;;;;;4973524;28;20479;-62
2023/06/26 00:08:31;;;;;;;26.73;25.53;;;27.90;69.40;;;;;;4973655;28;20451;-63
2023/06/26 00:10:58;;;;;;;26.90;25.80;;;27.90;69.30;;;;;;4973215;28;20989;-63
2023/06/26 00:13:26;;;;;;;26.40;25.30;;;27.90;69.00;;;;;;4973355;28;20507;-63
2023/06/26 00:15:53;;;;;;;26.27;24.93;;;27.90;69.00;;;;;;4973397;28;20487;-63
2023/06/26 00:18:20;;;;;;;27.30;26.00;;;27.90;68.90;;;;;;4973516;28;20832;-63
2023/06/26 00:20:47;;;;;;;26.77;25.67;;;27.90;68.80;;;;;;4973102;28;20479;-63
2023/06/26 00:23:17;;;;;;;26.80;25.43;;;27.80;68.50;;;;;;4973347;28;20924;-63
2023/06/26 00:25:44;;;;;;;25.73;24.57;;;27.80;68.30;;;;;;4973236;28;20471;-63
2023/06/26 00:28:11;;;;;;;26.13;25.03;;;27.80;68.40;;;;;;4973303;28;20448;-61
2023/06/26 00:30:39;;;;;;;26.37;25.20;;;27.70;68.50;;;;;;4972644;28;20482;-63
2023/06/26 00:33:06;;;;;;;26.10;25.00;;;27.70;68.40;;;;;;4972851;28;20993;-62
2023/06/26 00:35:33;;;;;;;26.13;25.00;;;27.70;68.80;;;;;;4973099;28;20443;-63
2023/06/26 00:38:00;;;;;;;26.30;25.10;;;27.70;68.90;;;;;;4972339;28;20531;-62
2023/06/26 00:40:27;;;;;;;26.40;25.10;;;27.70;68.90;;;;;;4972933;28;20519;-63
2023/06/26 00:42:54;;;;;;;25.93;24.63;;;27.70;69.00;;;;;;4973030;28;20467;-63
2023/06/26 00:45:21;;;;;;;27.43;26.07;;;27.70;69.10;;;;;;4972942;28;21002;-63
2023/06/26 00:47:49;;;;;;;25.57;24.50;;;27.70;69.20;;;;;;4972996;28;20882;-63
2023/06/26 00:50:17;;;;;;;26.33;25.13;;;27.70;69.40;;;;;;4972665;28;20483;-63
2023/06/26 00:52:44;;;;;;;25.53;24.43;;;27.60;69.30;;;;;;4972799;28;20475;-62
2023/06/26 00:55:11;;;;;;;25.30;24.30;;;27.60;69.40;;;;;;4972952;28;20447;-61
2023/06/26 00:57:38;;;;;;;26.27;25.07;;;27.60;69.60;;;;;;4972826;28;20479;-62
2023/06/26 01:00:07;;;;;;;26.10;24.80;;;27.60;70.30;;;;;;4972700;28;20476;-63
2023/06/26 01:02:34;;;;;;;26.70;25.30;;;27.60;70.90;;;;;;4972853;28;20506;-61
2023/06/26 01:05:06;;;;;;;24.70;23.60;;;27.50;71.00;;;;;;4972767;28;20542;-63
2023/06/26 01:07:36;;;;;;;26.23;24.93;;;27.50;71.10;;;;;;4972874;28;20455;-61
2023/06/26 01:10:04;;;;;;;26.60;25.40;;;27.50;71.20;;;;;;4972698;28;20502;-62
2023/06/26 01:12:32;;;;;;;26.50;25.30;;;27.50;71.40;;;;;;4972678;28;20485;-61
2023/06/26 01:14:59;;;;;;;26.10;25.00;;;27.50;71.60;;;;;;4972743;28;20831;-63
2023/06/26 01:17:31;;;;;;;26.20;25.00;;;27.40;72.70;;;;;;4972471;28;20479;-62
2023/06/26 01:19:58;;;;;;;26.23;25.03;;;27.40;72.00;;;;;;4972380;28;20476;-63
2023/06/26 01:22:44;;;;;;;27.40;25.80;;;27.40;72.00;;;;;;4972586;28;20535;-63
2023/06/26 01:25:18;;;;;;;26.23;25.03;;;27.40;72.10;;;;;;4972671;28;20459;-63
2023/06/26 01:27:49;;;;;;;27.10;25.80;;;27.40;72.40;;;;;;4972735;28;20471;-63
2023/06/26 01:30:18;;;;;;;25.80;24.50;;;27.40;72.60;;;;;;4953352;28;20998;-62
2023/06/26 01:32:46;;;;;;;27.17;25.87;;;27.30;72.70;;;;;;4953218;28;20476;-63
2023/06/26 01:35:13;;;;;;;26.80;25.50;;;27.40;72.80;;;;;;4953256;28;20480;-63
2023/06/26 01:37:40;;;;;;;25.50;24.20;;;27.30;72.70;;;;;;4953232;28;20480;-61
2023/06/26 01:40:08;;;;;;;26.50;25.10;;;27.30;72.90;;;;;;4989142;28;20484;-62
2023/06/26 01:42:35;;;;;;;25.90;24.80;;;27.30;73.80;;;;;;4991954;28;20450;-63
2023/06/26 01:45:08;;;;;;;26.90;25.73;;;27.20;73.10;;;;;;4991924;28;20873;-63
2023/06/26 01:47:38;;;;;;;27.93;26.60;;;27.30;73.20;;;;;;4991630;28;20501;-63
2023/06/26 01:50:09;;;;;;;26.00;24.80;;;27.30;73.20;;;;;;4975873;28;20889;-62
2023/06/26 01:52:41;;;;;;;27.90;26.20;;;27.20;73.50;;;;;;4976041;28;21067;-63
2023/06/26 01:55:17;;;;;;;26.53;25.23;;;27.20;73.70;;;;;;4977185;28;20488;-60
2023/06/26 01:57:47;;;;;;;28.47;26.80;;;27.20;73.70;;;;;;4976066;28;20446;-59
2023/06/26 02:00:17;;;;;;;28.00;26.70;;;27.20;73.90;;;;;;4975938;28;20485;-61
2023/06/26 02:02:44;;;;;;;27.10;25.87;;;27.10;74.00;;;;;;4975882;28;20494;-62
2023/06/26 02:05:12;;;;;;;26.87;25.67;;;27.10;74.10;;;;;;4980974;28;20987;-63
2023/06/26 02:07:39;;;;;;;28.37;26.70;;;27.10;74.30;;;;;;4995171;28;20816;-61
2023/06/26 02:10:07;;;;;;;28.10;26.40;;;27.10;74.90;;;;;;4995255;28;20537;-62
2023/06/26 02:12:35;;;;;;;27.03;25.70;;;27.10;75.20;;;;;;4995156;28;20774;-61
2023/06/26 02:15:02;;;;;;;27.63;26.20;;;27.00;76.00;;;;;;4991127;28;20444;-62
2023/06/26 02:17:31;;;;;;;28.43;27.03;;;27.00;76.20;;;;;;4975467;28;20443;-62
2023/06/26 02:19:58;;;;;;;26.90;25.80;;;27.00;76.60;;;;;;4975665;28;20574;-61
2023/06/26 02:22:24;;;;;;;28.67;27.33;;;27.00;76.90;;;;;;4975457;28;20498;-63
2023/06/26 02:24:51;;;;;;;29.57;28.17;;;26.90;77.10;;;;;;4975417;28;20487;-63
2023/06/26 02:27:18;;;;;;;27.60;26.30;;;26.90;77.30;;;;;;4975279;28;20547;-62
2023/06/26 02:29:45;;;;;;;27.67;26.30;;;26.90;77.60;;;;;;4975461;28;20476;-62
2023/06/26 02:32:12;;;;;;;26.10;24.90;;;26.80;78.60;;;;;;4982511;28;20526;-63
2023/06/26 02:34:40;;;;;;;28.07;26.60;;;26.80;78.70;;;;;;4994726;28;20529;-62
2023/06/26 02:37:07;;;;;;;29.17;27.70;;;26.60;77.40;;;;;;4994437;28;20985;-63
2023/06/26 02:39:34;;;;;;;26.30;25.00;;;26.50;77.10;;;;;;4994730;28;20788;-61
2023/06/26 02:42:01;;;;;;;27.60;26.20;;;26.50;78.00;;;;;;4988868;28;20448;-63
2023/06/26 02:44:28;;;;;;;27.70;26.33;;;26.40;78.20;;;;;;4975126;28;20506;-61
2023/06/26 02:46:55;;;;;;;27.17;25.97;;;26.40;78.60;;;;;;4974975;28;20505;-63
2023/06/26 02:49:22;;;;;;;27.03;25.73;;;26.30;79.20;;;;;;4975116;28;20487;-63
2023/06/26 02:51:50;;;;;;;26.77;25.57;;;26.30;79.20;;;;;;4978528;28;20550;-61
2023/06/26 02:54:17;;;;;;;27.73;26.40;;;26.30;79.00;;;;;;4994265;28;20561;-60
2023/06/26 02:56:44;;;;;;;27.77;26.37;;;26.40;78.40;;;;;;4994313;28;20478;-63
2023/06/26 02:59:11;;;;;;;26.33;25.10;;;26.40;78.30;;;;;;4994510;28;20960;-62
2023/06/26 03:01:38;;;;;;;26.93;25.43;;;26.50;78.70;;;;;;4991241;28;20944;-63
2023/06/26 03:04:05;;;;;;;27.60;26.30;;;26.50;77.80;;;;;;4974716;28;20894;-65
2023/06/26 03:06:32;;;;;;;29.30;28.00;;;26.50;76.90;;;;;;4974724;28;20475;-65
2023/06/26 03:09:00;;;;;;;27.27;25.97;;;26.50;76.60;;;;;;4974690;28;20483;-62
2023/06/26 03:11:27;;;;;;;27.27;26.03;;;26.50;76.30;;;;;;4974546;28;20864;-62
2023/06/26 03:13:54;;;;;;;26.53;25.33;;;26.40;76.10;;;;;;4974702;28;20506;-64
2023/06/26 03:16:21;;;;;;;27.70;26.40;;;26.40;75.50;;;;;;4974320;28;20476;-65
2023/06/26 03:18:48;;;;;;;27.00;25.80;;;26.40;75.60;;;;;;4974676;28;20483;-64
2023/06/26 03:21:15;;;;;;;25.70;24.60;;;26.30;75.50;;;;;;4974435;28;20566;-66
2023/06/26 03:23:42;;;;;;;28.13;26.73;;;26.40;75.80;;;;;;4974240;28;20499;-65
2023/06/26 03:26:10;;;;;;;26.70;25.33;;;26.30;75.20;;;;;;4974333;28;20479;-65
2023/06/26 03:28:37;;;;;;;25.90;24.73;;;26.30;75.30;;;;;;4974352;28;20885;-64
2023/06/26 03:31:04;;;;;;;28.70;27.50;;;26.40;75.80;;;;;;4974194;28;20565;-59
2023/06/26 03:33:30;;;;;;;28.10;26.80;;;26.30;75.90;;;;;;4973978;28;20534;-58
2023/06/26 03:35:58;;;;;;;26.83;25.70;;;26.30;76.40;;;;;;4974092;28;20480;-61
2023/06/26 03:38:26;;;;;;;27.50;26.00;;;26.20;77.10;;;;;;4974056;28;20874;-60
2023/06/26 03:40:53;;;;;;;26.90;25.60;;;26.10;77.90;;;;;;4974161;28;20671;-60
2023/06/26 03:43:21;;;;;;;26.50;25.20;;;26.10;78.90;;;;;;4974140;28;20539;-60
2023/06/26 03:45:48;;;;;;;28.47;26.90;;;26.00;79.80;;;;;;4973947;28;20547;-61
2023/06/26 03:48:15;;;;;;;26.73;25.10;;;26.00;80.60;;;;;;4973974;28;20522;-60
2023/06/26 03:50:41;;;;;;;26.83;25.53;;;26.00;81.20;;;;;;4974002;28;20482;-62
2023/06/26 03:53:08;;;;;;;27.10;25.73;;;26.00;81.80;;;;;;4974653;28;20559;-61
2023/06/26 03:55:35;;;;;;;25.27;24.27;;;25.90;82.70;;;;;;4993127;28;20534;-61
2023/06/26 03:58:02;;;;;;;25.57;24.33;;;25.90;83.20;;;;;;4993174;28;20451;-61
2023/06/26 04:00:30;;;;;;;27.60;26.40;;;25.90;83.90;;;;;;4993095;28;20577;-61
2023/06/26 04:02:58;;;;;;;28.40;27.10;;;25.80;84.60;;;;;;4993070;28;20581;-61
2023/06/26 04:05:25;;;;;;;26.77;25.70;;;25.70;85.10;;;;;;4973729;28;20451;-60
2023/06/26 04:07:52;;;;;;;27.07;25.87;;;25.60;85.40;;;;;;4973539;28;21036;-61
2023/06/26 04:10:20;;;;;;;26.90;25.60;;;25.60;85.90;;;;;;4973565;28;20548;-60
2023/06/26 04:12:47;;;;;;;29.50;27.97;;;25.60;86.60;;;;;;4973490;28;20559;-60
2023/06/26 04:15:14;;;;;;;26.00;24.90;;;25.70;86.60;;;;;;4990621;28;20548;-62
2023/06/26 04:17:43;;;;;;;27.80;26.60;;;25.70;87.10;;;;;;4973534;28;20958;-64
2023/06/26 04:20:10;;;;;;;28.93;27.73;;;25.70;87.50;;;;;;4973292;28;20494;-64
2023/06/26 04:22:37;;;;;;;28.30;27.00;;;25.80;87.30;;;;;;4973448;28;20495;-64
2023/06/26 04:25:04;;;;;;;26.77;25.67;;;25.90;85.90;;;;;;4973259;28;20490;-64
2023/06/26 04:27:31;;;;;;;27.50;26.47;;;26.10;84.50;;;;;;4972958;28;20597;-63
2023/06/26 04:29:59;;;;;;;27.97;26.67;;;26.20;83.40;;;;;;4973262;28;20500;-63
2023/06/26 04:32:26;;;;;;;27.07;25.90;;;26.30;82.50;;;;;;4973162;28;20444;-64
2023/06/26 04:34:54;;;;;;;25.23;24.23;;;26.30;81.70;;;;;;4973333;28;20483;-64
2023/06/26 04:37:21;;;;;;;26.93;25.73;;;26.40;81.20;;;;;;4972974;28;20878;-64
2023/06/26 04:39:48;;;;;;;26.93;25.73;;;26.40;80.50;;;;;;4973227;28;20878;-64
2023/06/26 04:42:14;;;;;;;27.17;26.00;;;26.50;80.10;;;;;;4973097;28;21092;-64
2023/06/26 04:44:42;;;;;;;26.90;25.80;;;26.50;79.70;;;;;;4973022;28;20514;-64
2023/06/26 04:47:09;;;;;;;27.23;26.03;;;26.50;79.20;;;;;;4972902;28;20490;-64
2023/06/26 04:49:36;;;;;;;26.50;25.40;;;26.60;78.90;;;;;;4972977;28;20546;-64
2023/06/26 04:52:05;;;;;;;26.60;25.60;;;26.60;78.70;;;;;;4972822;28;20487;-63
2023/06/26 04:54:32;;;;;;;26.30;25.30;;;26.60;78.30;;;;;;5050239;23;20518;-59
2023/06/26 04:56:59;;;;;;;27.53;26.30;;;26.70;78.20;;;;;;5028832;28;20476;-60
2023/06/26 04:59:26;;;;;;;28.33;27.13;;;26.70;77.80;;;;;;5031605;28;20449;-59
2023/06/26 05:01:53;;;;;;;26.50;25.50;;;26.70;77.60;;;;;;5031610;28;20572;-61
2023/06/26 05:04:20;;;;;;;25.80;24.77;;;26.70;77.40;;;;;;5045916;28;20499;-59
2023/06/26 05:06:47;;;;;;;26.60;25.40;;;26.80;77.30;;;;;;5051242;28;20491;-58
2023/06/26 05:09:15;;;;;;;25.97;24.97;;;26.80;77.00;;;;;;5051480;28;20475;-61
2023/06/26 05:11:42;;;;;;;27.57;26.43;;;26.80;76.80;;;;;;5051352;28;20859;-59
2023/06/26 05:14:09;;;;;;;26.87;25.47;;;26.80;76.70;;;;;;5051569;28;20496;-59
2023/06/26 05:16:36;;;;;;;26.30;25.30;;;26.80;76.60;;;;;;5051200;28;20829;-61
2023/06/26 05:19:03;;;;;;;26.30;25.23;;;26.80;76.40;;;;;;5051382;28;20486;-60
2023/06/26 05:21:30;;;;;;;25.53;24.50;;;26.80;76.20;;;;;;5051243;28;20566;-58
2023/06/26 05:23:58;;;;;;;24.63;23.73;;;26.90;76.10;;;;;;5051253;28;20475;-60
2023/06/26 05:26:28;;;;;;;27.30;26.20;;;26.90;76.00;;;;;;5055049;28;20452;-58
2023/06/26 05:28:55;;;;;;;28.70;27.40;;;26.90;75.90;;;;;;5055367;28;20444;-59
2023/06/26 05:31:23;;;;;;;27.40;26.20;;;26.90;75.70;;;;;;5055289;28;20880;-60
2023/06/26 05:33:51;;;;;;;26.90;25.90;;;26.90;75.70;;;;;;5055129;28;20550;-60
2023/06/26 05:36:19;;;;;;;26.97;25.93;;;26.90;75.50;;;;;;5054949;28;20455;-60
2023/06/26 05:38:48;;;;;;;28.20;27.00;;;27.00;75.50;;;;;;5055174;28;20455;-60
2023/06/26 05:41:15;;;;;;;26.80;25.80;;;26.90;75.30;;;;;;5055021;28;20475;-57
2023/06/26 05:43:44;;;;;;;25.83;24.83;;;27.00;75.30;;;;;;5054937;28;20495;-60
2023/06/26 05:46:10;;;;;;;26.00;24.90;;;27.00;75.20;;;;;;5054917;28;20475;-62
2023/06/26 05:48:37;;;;;;;26.40;25.40;;;27.00;75.10;;;;;;5054933;28;20483;-58
2023/06/26 05:51:05;;;;;;;26.70;25.50;;;27.00;75.00;;;;;;5055002;28;20471;-59
2023/06/26 05:53:32;;;;;;;25.60;24.60;;;27.00;74.90;;;;;;5054482;28;20504;-59
2023/06/26 05:55:59;;;;;;;26.33;25.33;;;27.10;74.90;;;;;;5054573;28;20480;-60
2023/06/26 05:58:28;;;;;;;25.90;24.80;;;27.10;74.80;;;;;;5054634;28;20483;-60
2023/06/26 06:00:56;;;;;;;28.07;26.87;;;27.10;74.80;;;;;;5054584;28;20992;-61
2023/06/26 06:03:25;;;;;;;28.07;26.97;;;27.00;74.60;;;;;;5054618;28;21000;-61
2023/06/26 06:05:51;;;;;;;27.03;26.03;;;27.10;74.60;;;;;;5054505;28;20440;-61
2023/06/26 06:08:18;;;;;;;27.50;26.40;;;27.10;74.60;;;;;;5054515;28;20476;-61
2023/06/26 06:10:45;;;;;;;25.80;24.80;;;27.10;74.50;;;;;;5054620;28;21008;-59
2023/06/26 06:13:12;;;;;;;26.10;25.10;;;27.10;74.50;;;;;;5054480;28;20496;-58
2023/06/26 06:15:39;;;;;;;26.67;25.67;;;27.10;74.40;;;;;;5054259;28;20448;-61
2023/06/26 06:18:07;;;;;;;27.50;26.40;;;27.10;74.30;;;;;;5054397;28;20498;-60
2023/06/26 06:20:35;;;;;;;27.83;26.77;;;27.10;74.30;;;;;;5054398;28;20537;-60
2023/06/26 06:23:02;;;;;;;26.60;25.50;;;27.10;74.10;;;;;;5054236;28;20515;-59
2023/06/26 06:25:29;;;;;;;26.37;25.33;;;27.10;74.00;;;;;;5054167;28;20527;-59
2023/06/26 06:27:56;;;;;;;26.93;25.93;;;27.10;73.90;;;;;;5054129;28;20471;-60
2023/06/26 06:30:23;;;;;;;27.63;26.53;;;27.10;73.90;;;;;;5054329;28;20530;-60
2023/06/26 06:32:52;;;;;;;29.53;28.43;;;27.20;74.00;;;;;;5054132;28;20448;-61
2023/06/26 06:35:20;;;;;;;26.90;25.87;;;27.20;74.00;;;;;;5053800;28;20447;-61
2023/06/26 06:37:48;;;;;;;28.20;27.20;;;27.10;73.70;;;;;;5053031;28;20484;-57
2023/06/26 06:40:16;;;;;;;25.40;24.50;;;27.20;73.80;;;;;;5054024;28;20452;-59
2023/06/26 06:42:42;;;;;;;27.63;26.63;;;27.20;73.70;;;;;;5053726;28;20518;-60
2023/06/26 06:45:10;;;;;;;27.77;26.77;;;27.20;73.70;;;;;;5053881;28;20582;-60
2023/06/26 06:47:37;;;;;;;28.87;27.77;;;27.20;73.70;;;;;;5053697;28;20452;-61
2023/06/26 06:50:07;;;;;;;27.47;26.47;;;27.20;73.70;;;;;;5053804;28;20871;-62
2023/06/26 06:52:37;;;;;;;28.90;27.80;;;27.20;73.60;;;;;;5053883;28;20574;-60
2023/06/26 06:55:06;;;;;;;27.70;26.60;;;27.20;73.50;;;;;;5053602;28;20487;-59
2023/06/26 06:57:35;;;;;;;27.00;26.00;;;27.20;73.40;;;;;;5053567;28;20455;-60
2023/06/26 07:00:04;;;;;;;28.83;27.73;;;27.30;73.40;;;;;;5053685;28;20506;-59
2023/06/26 07:02:31;;;;;;;26.83;25.67;;;27.30;73.40;;;;;;5053465;28;20575;-60
2023/06/26 07:04:58;;;;;;;27.40;26.40;;;27.20;73.30;;;;;;5053349;28;20912;-60
2023/06/26 07:07:29;;;;;;;28.40;27.33;;;27.30;73.70;;;;;;5053478;28;20491;-61
2023/06/26 07:09:58;;;;;;;28.13;27.13;;;27.30;73.20;;;;;;5053379;28;20535;-61
2023/06/26 07:12:25;;;;;;;27.40;26.40;;;27.30;73.20;;;;;;5053395;28;20440;-61
2023/06/26 07:14:53;;;;;;;27.73;26.73;;;27.30;73.10;;;;;;5053273;28;20500;-59
2023/06/26 07:17:20;;;;;;;26.50;25.43;;;27.30;73.20;;;;;;5053124;28;20452;-60
2023/06/26 07:19:47;;;;;;;28.20;27.10;;;27.30;73.10;;;;;;5053292;28;20539;-59
2023/06/26 07:22:14;;;;;;;28.73;27.63;;;27.30;73.10;;;;;;5053185;28;20487;-60
2023/06/26 07:24:41;;;;;;;26.03;25.10;;;27.30;73.00;;;;;;5053139;28;20528;-61
2023/06/26 07:27:10;;;;;;;26.90;25.90;;;27.30;73.00;;;;;;5052843;28;20476;-60
2023/06/26 07:29:37;;;;;;;28.23;27.20;;;27.30;72.90;;;;;;5053166;28;20527;-60
2023/06/26 07:32:04;;;;;;;27.03;26.03;;;27.40;72.90;;;;;;5053034;28;20849;-60
2023/06/26 07:34:31;;;;;;;27.40;26.40;;;27.30;72.90;;;;;;5052961;28;20896;-58
2023/06/26 07:36:57;;;;;;;27.53;26.53;;;27.40;72.90;;;;;;5052738;28;20455;-61
2023/06/26 07:39:24;;;;;;;27.50;26.50;;;27.40;72.90;;;;;;5052995;28;20480;-60
2023/06/26 07:41:51;;;;;;;29.17;28.07;;;27.40;72.80;;;;;;5052741;28;20515;-59
2023/06/26 07:44:19;;;;;;;28.30;27.23;;;27.40;72.80;;;;;;5052644;28;20902;-59
2023/06/26 07:46:46;;;;;;;27.37;26.37;;;27.40;72.70;;;;;;5052337;28;20949;-61
2023/06/26 07:49:13;;;;;;;27.17;26.17;;;27.40;72.70;;;;;;5052592;28;20969;-58
2023/06/26 07:51:40;;;;;;;27.70;26.70;;;27.40;72.60;;;;;;5052603;28;20472;-61
2023/06/26 07:54:07;;;;;;;28.57;27.47;;;27.40;72.60;;;;;;5052287;28;20503;-59
2023/06/26 07:56:53;;;;;;;27.40;26.40;;;27.40;72.60;;;;;;5052328;28;20892;-61
2023/06/26 07:59:21;;;;;;;27.10;26.10;;;27.40;72.60;;;;;;5052583;28;20444;-58
2023/06/26 08:01:48;;;;;;;27.80;26.80;;;27.40;72.50;;;;;;5052391;28;20822;-58
2023/06/26 08:04:15;;;;;;;28.90;27.80;;;27.40;72.50;;;;;;5052304;28;20500;-62
2023/06/26 08:06:42;;;;;;;28.77;27.67;;;27.40;72.40;;;;;;5052105;28;20527;-61
2023/06/26 08:09:09;;;;;;;28.83;27.67;;;27.40;72.40;;;;;;5052308;28;20522;-60
2023/06/26 08:11:36;;;;;;;26.10;25.10;;;27.40;72.40;;;;;;5052320;28;20811;-62
2023/06/26 08:14:03;;;;;;;28.67;27.50;;;27.40;72.40;;;;;;5052227;28;20496;-59
2023/06/26 08:16:31;;;;;;;29.27;28.17;;;27.40;72.40;;;;;;5052011;28;20531;-60
2023/06/26 08:18:58;;;;;;;30.10;29.00;;;27.40;72.40;;;;;;5052144;28;20480;-59
2023/06/26 08:21:25;;;;;;;30.83;29.73;;;27.40;72.30;;;;;;5051943;28;20488;-60
2023/06/26 08:23:52;;;;;;;30.37;29.27;;;27.40;72.40;;;;;;5051800;28;20508;-59
2023/06/26 08:26:19;;;;;;;29.00;27.90;;;27.40;72.40;;;;;;5051925;28;20958;-62
2023/06/26 08:28:46;;;;;;;28.00;27.00;;;27.40;72.30;;;;;;5051989;28;20900;-60
2023/06/26 08:31:13;;;;;;;28.43;27.33;;;27.50;72.30;;;;;;5051994;28;20498;-59
2023/06/26 08:33:41;;;;;;;25.33;24.43;;;27.50;72.30;;;;;;5051835;28;20492;-60
2023/06/26 08:36:08;;;;;;;29.87;28.77;;;27.50;72.30;;;;;;5051624;28;20862;-60
2023/06/26 08:38:35;;;;;;;27.23;26.00;;;27.50;72.30;;;;;;5051890;28;20531;-59
2023/06/26 08:41:02;;;;;;;28.23;27.23;;;27.50;72.30;;;;;;5051786;28;20483;-60
2023/06/26 08:43:29;;;;;;;27.73;26.73;;;27.50;72.20;;;;;;5051671;28;20562;-60
2023/06/26 08:45:55;;;;;;;29.13;27.93;;;27.50;72.30;;;;;;5051587;28;20448;-60
2023/06/26 08:48:22;;;;;;;26.33;25.33;;;27.50;72.20;;;;;;5051590;28;20495;-60
2023/06/26 08:50:54;;;;;;;28.00;27.00;;;27.50;72.20;;;;;;5051632;28;20487;-62
2023/06/26 08:53:29;;;;;;;26.63;25.37;;;27.50;72.20;;;;;;5051517;28;20503;-61
2023/06/26 08:55:59;;;;;;;27.23;26.23;;;27.50;72.20;;;;;;5051375;28;20550;-60
2023/06/26 08:58:26;;;;;;;26.87;25.87;;;27.50;72.10;;;;;;5051362;28;20471;-62
2023/06/26 09:00:53;;;;;;;28.03;26.80;;;27.60;72.10;;;;;;5050992;28;20448;-60
2023/06/26 09:03:20;;;;;;;28.53;27.53;;;27.50;72.10;;;;;;5051271;28;20484;-60
2023/06/26 09:05:47;;;;;;;28.63;27.53;;;27.50;72.10;;;;;;5051386;28;20444;-61
2023/06/26 09:08:18;;;;;;;29.03;27.93;;;27.50;72.00;;;;;;5051496;28;20484;-61
2023/06/26 09:10:45;;;;;;;28.13;27.10;;;27.60;72.10;;;;;;5051531;28;20554;-60
2023/06/26 09:13:12;;;;;;;26.80;25.80;;;27.60;72.00;;;;;;5051397;28;20595;-60
2023/06/26 09:15:42;;;;;;;26.70;25.70;;;27.60;72.00;;;;;;5051327;28;20479;-59
2023/06/26 09:18:10;;;;;;;26.77;25.77;;;27.60;72.00;;;;;;5051605;28;20484;-61
2023/06/26 09:20:37;;;;;;;27.67;26.67;;;27.60;72.00;;;;;;5051512;28;20483;-62
2023/06/26 09:23:05;;;;;;;28.87;27.87;;;27.60;72.00;;;;;;5051199;28;20566;-62
2023/06/26 09:25:34;;;;;;;27.00;26.00;;;27.60;72.00;;;;;;5051383;28;20455;-59
2023/06/26 09:28:01;;;;;;;25.57;24.60;;;27.60;72.00;;;;;;5051290;28;20535;-60
2023/06/26 09:30:28;;;;;;;26.03;25.03;;;27.60;71.90;;;;;;5051380;28;20472;-59
2023/06/26 09:32:55;;;;;;;27.80;26.80;;;27.60;71.90;;;;;;5051146;28;20444;-62
2023/06/26 09:35:22;;;;;;;27.07;26.07;;;27.70;72.00;;;;;;5051450;28;20444;-60
2023/06/26 09:37:49;;;;;;;28.70;27.70;;;27.60;71.80;;;;;;5050685;28;20531;-61
2023/06/26 09:40:16;;;;;;;28.40;27.30;;;27.60;71.80;;;;;;5051232;28;20523;-59
2023/06/26 09:42:45;;;;;;;26.90;26.00;;;27.70;71.90;;;;;;5051064;28;20480;-62
2023/06/26 09:45:20;;;;;;;27.77;26.77;;;27.70;71.90;;;;;;5051055;28;20506;-60
2023/06/26 09:47:47;;;;;;;28.57;27.57;;;27.70;71.80;;;;;;5051097;28;20949;-59
2023/06/26 09:50:22;;;;;;;27.03;26.13;;;27.70;71.80;;;;;;5051403;28;20476;-60
2023/06/26 09:52:52;;;;;;;27.07;26.10;;;27.60;71.70;;;;;;5050783;28;20799;-60
2023/06/26 09:55:22;;;;;;;26.57;25.63;;;27.70;71.80;;;;;;5051135;28;20878;-61
2023/06/26 09:57:51;;;;;;;28.50;27.50;;;27.70;71.80;;;;;;5050972;28;20448;-62
2023/06/26 10:00:20;;;;;;;27.20;26.20;;;27.70;72.60;;;;;;5050994;28;20447;-62
2023/06/26 10:02:46;;;;;;;29.43;28.43;;;27.70;71.90;;;;;;5050741;28;20538;-60
2023/06/26 10:05:14;;;;;;;26.83;25.87;;;27.70;71.90;;;;;;5050772;28;20498;-62
2023/06/26 10:07:41;;;;;;;29.30;28.10;;;27.70;71.80;;;;;;5050716;28;21023;-60
2023/06/26 10:10:11;;;;;;;29.97;28.60;;;27.70;71.70;;;;;;5051248;28;20480;-61
2023/06/26 10:12:38;;;;;;;28.27;27.27;;;27.70;71.70;;;;;;5054495;28;20513;-61
2023/06/26 10:15:12;;;;;;;27.70;26.70;;;27.70;71.70;;;;;;5054566;28;20526;-59
2023/06/26 10:17:43;;;;;;;25.50;24.60;;;27.70;71.60;;;;;;5054411;28;20448;-60
2023/06/26 10:20:11;;;;;;;25.73;24.83;;;27.70;71.60;;;;;;5054554;28;20566;-62
2023/06/26 10:22:43;;;;;;;30.00;28.90;;;27.70;71.60;;;;;;5054213;28;20483;-61
2023/06/26 10:25:12;;;;;;;26.93;25.93;;;27.70;71.60;;;;;;5054374;28;20482;-61
2023/06/26 10:27:43;;;;;;;28.00;27.00;;;27.70;71.60;;;;;;5054086;28;20459;-62
2023/06/26 10:30:16;;;;;;;29.57;28.47;;;27.70;71.60;;;;;;5054407;28;20503;-62
2023/06/26 10:32:43;;;;;;;26.80;25.80;;;27.70;71.50;;;;;;5054147;28;20482;-62
2023/06/26 10:35:12;;;;;;;28.93;27.93;;;27.70;71.50;;;;;;5054120;28;20491;-59
2023/06/26 10:37:43;;;;;;;28.07;27.07;;;27.70;71.40;;;;;;5054018;28;20459;-61
2023/06/26 10:40:11;;;;;;;26.93;25.93;;;27.80;71.50;;;;;;5054072;28;20460;-61
2023/06/26 10:42:39;;;;;;;27.40;26.10;;;27.80;71.50;;;;;;5053802;28;20516;-62
2023/06/26 10:45:16;;;;;;;26.57;25.67;;;27.80;71.40;;;;;;5054067;28;20487;-61
2023/06/26 10:47:46;;;;;;;26.70;25.80;;;27.80;71.40;;;;;;5054151;28;20507;-61
2023/06/26 10:50:24;;;;;;;25.43;24.53;;;27.80;71.30;;;;;;5054106;28;20502;-60
2023/06/26 10:53:10;;;;;;;27.60;26.47;;;27.80;71.30;;;;;;5053782;28;20786;-60
2023/06/26 10:55:37;;;;;;;27.30;26.30;;;27.80;71.30;;;;;;5054227;28;20468;-62
2023/06/26 10:58:04;;;;;;;26.80;25.90;;;27.80;71.20;;;;;;5053707;28;20530;-63
2023/06/26 11:00:32;;;;;;;27.87;26.87;;;27.80;71.90;;;;;;5053819;28;20475;-63
2023/06/26 11:03:00;;;;;;;26.17;25.27;;;27.80;71.90;;;;;;5053381;28;20480;-63
2023/06/26 11:05:28;;;;;;;28.47;27.47;;;27.80;71.10;;;;;;5053480;28;20825;-63
2023/06/26 11:08:05;;;;;;;25.90;25.00;;;27.80;71.10;;;;;;5053589;28;20448;-63
2023/06/26 11:10:51;;;;;;;26.27;25.37;;;27.80;71.00;;;;;;5053670;28;20479;-63
2023/06/26 11:13:19;;;;;;;27.57;26.67;;;27.80;71.00;;;;;;5053504;28;20463;-63
2023/06/26 11:15:49;;;;;;;25.50;24.70;;;27.80;70.90;;;;;;5053251;28;20471;-63
2023/06/26 11:18:16;;;;;;;27.73;26.83;;;27.80;71.70;;;;;;5053406;28;20479;-63
2023/06/26 11:20:43;;;;;;;26.20;25.30;;;27.80;70.90;;;;;;5053605;28;20487;-63
2023/06/26 11:23:11;;;;;;;27.27;26.27;;;27.90;70.90;;;;;;5052428;28;20519;-64
2023/06/26 11:25:39;;;;;;;26.83;25.93;;;27.90;70.90;;;;;;5053409;28;20448;-64
2023/06/26 11:28:06;;;;;;;28.00;27.03;;;27.90;70.90;;;;;;5053058;28;20531;-63
2023/06/26 11:30:33;;;;;;;27.37;26.47;;;27.90;70.80;;;;;;5053381;28;20483;-64
2023/06/26 11:33:10;;;;;;;26.80;25.90;;;27.90;70.80;;;;;;5053072;28;20505;-63
2023/06/26 11:35:38;;;;;;;27.40;26.50;;;27.90;70.70;;;;;;5052966;28;20452;-64
2023/06/26 11:38:05;;;;;;;27.27;26.33;;;27.90;70.60;;;;;;5052838;28;20934;-64
2023/06/26 11:40:33;;;;;;;26.80;25.90;;;27.90;70.50;;;;;;5053069;28;20810;-64
2023/06/26 11:43:03;;;;;;;27.10;26.20;;;27.90;70.50;;;;;;5052671;28;20480;-64
2023/06/26 11:45:31;;;;;;;27.73;26.80;;;27.90;70.40;;;;;;5052797;28;20456;-63
2023/06/26 11:47:58;;;;;;;25.97;25.07;;;27.90;70.40;;;;;;5052753;28;20475;-63
2023/06/26 11:50:27;;;;;;;26.07;25.13;;;27.90;70.30;;;;;;5052714;28;20487;-63
2023/06/26 11:52:55;;;;;;;29.20;28.20;;;28.00;70.30;;;;;;5052580;28;20937;-63
2023/06/26 11:55:22;;;;;;;27.40;26.50;;;27.90;70.20;;;;;;5052553;28;20456;-64
2023/06/26 11:57:50;;;;;;;28.10;27.20;;;28.00;70.30;;;;;;5052764;28;20483;-63
2023/06/26 12:00:17;;;;;;;26.80;25.80;;;28.00;70.20;;;;;;5052864;28;20451;-62
2023/06/26 12:02:45;;;;;;;28.50;27.60;;;28.00;70.20;;;;;;5052565;28;20479;-63
2023/06/26 12:05:13;;;;;;;28.60;27.60;;;28.00;70.10;;;;;;5052375;28;20780;-63
2023/06/26 12:07:43;;;;;;;29.87;28.87;;;28.00;70.00;;;;;;5052262;28;20480;-64
2023/06/26 12:10:12;;;;;;;28.13;27.23;;;28.00;70.00;;;;;;5052232;28;20486;-63
2023/06/26 12:12:39;;;;;;;26.73;25.83;;;28.00;69.80;;;;;;5052273;28;20456;-62
2023/06/26 12:15:08;;;;;;;26.93;26.03;;;28.00;69.80;;;;;;5052342;28;20972;-63
2023/06/26 12:17:39;;;;;;;24.33;23.47;;;28.00;69.70;;;;;;5051953;28;20444;-63
2023/06/26 12:20:17;;;;;;;26.20;25.30;;;28.00;69.70;;;;;;5052510;28;20440;-63
2023/06/26 12:22:47;;;;;;;25.80;24.90;;;28.10;69.80;;;;;;5052153;28;20921;-64
2023/06/26 12:25:14;;;;;;;26.20;25.33;;;28.10;69.70;;;;;;5052036;28;20447;-63
2023/06/26 12:27:41;;;;;;;27.97;27.07;;;28.10;69.70;;;;;;5052193;28;20476;-65
2023/06/26 12:30:08;;;;;;;27.60;26.63;;;28.10;69.70;;;;;;5052019;28;20963;-64
2023/06/26 12:32:36;;;;;;;27.53;26.63;;;28.00;69.50;;;;;;5052080;28;20786;-63